createdAt,value
2018-07-11T00:00:11.819Z,1.60
2018-07-11T00:02:39.120Z,1.70
2018-07-11T00:05:06.498Z,1.83
2018-07-11T00:07:33.903Z,1.70
2018-07-11T00:10:01.251Z,1.40
2018-07-11T00:12:28.639Z,1.70
2018-07-11T00:14:56.117Z,2.00
2018-07-11T00:17:23.550Z,1.80
2018-07-11T00:19:50.912Z,2.00
2018-07-11T00:22:18.219Z,1.60
2018-07-11T00:24:45.721Z,2.90
2018-07-11T00:27:13.039Z,2.10
2018-07-11T00:29:40.347Z,1.70
2018-07-11T00:32:07.716Z,1.77
2018-07-11T00:34:35.111Z,2.07
2018-07-11T00:37:02.475Z,2.33
2018-07-11T00:39:29.943Z,2.37
2018-07-11T00:41:57.338Z,2.00
2018-07-11T00:44:24.720Z,1.97
2018-07-11T00:46:52.075Z,2.20
2018-07-11T00:49:19.388Z,2.10
2018-07-11T00:51:46.772Z,2.37
2018-07-11T00:54:14.079Z,3.03
2018-07-11T00:56:41.470Z,3.10
2018-07-11T00:59:11.134Z,2.80
2018-07-11T01:01:40.175Z,2.83
2018-07-11T01:04:07.711Z,3.00
2018-07-11T01:06:35.275Z,3.57
2018-07-11T01:09:02.814Z,3.40
2018-07-11T01:11:31.973Z,4.33
2018-07-11T01:13:59.491Z,3.60
2018-07-11T01:16:26.818Z,3.30
2018-07-11T01:18:57.119Z,3.60
2018-07-11T01:21:24.493Z,6.00
2018-07-11T01:23:51.872Z,3.33
2018-07-11T01:26:22.720Z,4.00
2018-07-11T01:28:50.069Z,3.27
2018-07-11T01:31:17.592Z,3.57
2018-07-11T01:33:45.085Z,3.67
2018-07-11T01:36:12.428Z,3.77
2018-07-11T01:38:39.779Z,3.67
2018-07-11T01:41:07.139Z,3.20
2018-07-11T01:43:34.563Z,3.50
2018-07-11T01:46:01.891Z,4.20
2018-07-11T01:48:29.183Z,3.70
2018-07-11T01:50:56.550Z,2.90
2018-07-11T01:53:23.915Z,3.43
2018-07-11T01:55:51.271Z,3.90
2018-07-11T01:58:18.695Z,3.90
2018-07-11T02:00:46.050Z,4.10
2018-07-11T02:03:13.382Z,4.60
2018-07-11T02:05:40.801Z,4.90
2018-07-11T02:08:08.122Z,4.47
2018-07-11T02:10:35.603Z,5.00
2018-07-11T02:13:03.071Z,4.67
2018-07-11T02:15:30.386Z,5.80
2018-07-11T02:17:58.215Z,5.43
2018-07-11T02:20:25.818Z,5.33
2018-07-11T02:22:53.603Z,4.67
2018-07-11T02:25:21.555Z,6.00
2018-07-11T02:27:49.563Z,6.50
2018-07-11T02:30:16.984Z,6.77
2018-07-11T02:32:44.532Z,6.37
2018-07-11T02:35:12.011Z,5.87
2018-07-11T02:37:39.744Z,5.97
2018-07-11T02:40:07.058Z,6.80
2018-07-11T02:42:34.492Z,7.33
2018-07-11T02:45:01.837Z,6.80
2018-07-11T02:47:34.471Z,8.00
2018-07-11T02:50:01.816Z,7.10
2018-07-11T02:52:29.314Z,7.60
2018-07-11T02:54:56.819Z,7.17
2018-07-11T02:57:24.149Z,7.70
2018-07-11T02:59:51.470Z,7.30
2018-07-11T03:02:18.859Z,7.20
2018-07-11T03:04:46.267Z,8.07
2018-07-11T03:07:13.930Z,8.23
2018-07-11T03:09:41.375Z,8.63
2018-07-11T03:12:08.680Z,7.30
2018-07-11T03:14:37.036Z,7.40
2018-07-11T03:17:04.487Z,7.90
2018-07-11T03:19:31.973Z,8.13
2018-07-11T03:21:59.302Z,8.47
2018-07-11T03:24:26.647Z,8.47
2018-07-11T03:26:54.424Z,8.77
2018-07-11T03:29:21.967Z,8.00
2018-07-11T03:31:49.448Z,8.57
2018-07-11T03:34:16.790Z,7.57
2018-07-11T03:36:44.171Z,8.87
2018-07-11T03:39:11.715Z,8.20
2018-07-11T03:41:42.556Z,7.70
2018-07-11T03:44:10.114Z,7.90
2018-07-11T03:46:37.564Z,8.90
2018-07-11T03:49:04.929Z,8.10
2018-07-11T03:51:32.393Z,8.90
2018-07-11T03:53:59.758Z,9.60
2018-07-11T03:56:27.067Z,7.50
2018-07-11T03:58:54.778Z,7.57
2018-07-11T04:01:22.169Z,7.10
2018-07-11T04:03:49.471Z,8.00
2018-07-11T04:06:17.002Z,8.47
2018-07-11T04:08:44.652Z,7.93
2018-07-11T04:11:12.021Z,6.97
2018-07-11T04:13:39.398Z,8.00
2018-07-11T04:16:06.841Z,7.30
2018-07-11T04:18:34.199Z,7.07
2018-07-11T04:21:02.703Z,7.90
2018-07-11T04:23:30.196Z,7.27
2018-07-11T04:25:57.859Z,7.43
2018-07-11T04:28:26.489Z,7.03
2018-07-11T04:30:54.235Z,8.67
2018-07-11T04:33:21.729Z,8.70
2018-07-11T04:35:49.292Z,8.07
2018-07-11T04:38:16.756Z,9.63
2018-07-11T04:40:44.080Z,8.23
2018-07-11T04:43:11.720Z,7.93
2018-07-11T04:45:39.272Z,10.13
2018-07-11T04:48:06.845Z,9.70
2018-07-11T04:50:34.276Z,9.00
2018-07-11T04:53:03.204Z,10.47
2018-07-11T04:55:31.303Z,8.53
2018-07-11T04:57:58.698Z,10.17
2018-07-11T05:00:26.097Z,10.53
2018-07-11T05:02:53.425Z,9.80
2018-07-11T05:05:21.154Z,10.00
2018-07-11T05:07:48.859Z,9.57
2018-07-11T05:10:16.215Z,9.30
2018-07-11T05:12:43.649Z,9.60
2018-07-11T05:15:11.007Z,9.27
2018-07-11T05:17:38.354Z,8.80
2018-07-11T05:20:05.839Z,8.43
2018-07-11T05:22:33.176Z,8.43
2018-07-11T05:25:00.656Z,8.60
2018-07-11T05:27:28.066Z,8.97
2018-07-11T05:29:55.398Z,10.83
2018-07-11T05:32:22.755Z,9.63
2018-07-11T05:34:50.397Z,8.90
2018-07-11T05:37:17.722Z,9.60
2018-07-11T05:39:45.095Z,9.63
2018-07-11T05:42:12.529Z,9.20
2018-07-11T05:44:39.855Z,9.93
2018-07-11T05:47:07.636Z,10.80
2018-07-11T05:49:35.522Z,9.20
2018-07-11T05:52:03.669Z,9.40
2018-07-11T05:54:31.835Z,9.97
2018-07-11T05:56:59.432Z,9.33
2018-07-11T05:59:26.802Z,10.47
2018-07-11T06:01:54.122Z,10.23
2018-07-11T06:04:21.461Z,9.17
2018-07-11T06:06:49.437Z,9.80
2018-07-11T06:09:17.123Z,9.47
2018-07-11T06:11:44.444Z,10.40
2018-07-11T06:14:11.922Z,10.30
2018-07-11T06:16:39.392Z,10.27
2018-07-11T06:19:06.731Z,11.80
2018-07-11T06:21:34.255Z,11.43
2018-07-11T06:24:01.750Z,10.27
2018-07-11T06:26:29.099Z,11.53
2018-07-11T06:28:56.472Z,10.77
2018-07-11T06:31:23.783Z,11.17
2018-07-11T06:33:51.096Z,10.57
2018-07-11T06:36:18.528Z,10.87
2018-07-11T06:38:45.848Z,11.73
2018-07-11T06:41:13.355Z,10.13
2018-07-11T06:43:40.787Z,10.43
2018-07-11T06:46:08.215Z,10.33
2018-07-11T06:48:35.610Z,10.50
2018-07-11T06:51:03.068Z,10.30
2018-07-11T06:53:30.607Z,11.00
2018-07-11T06:55:57.980Z,10.40
2018-07-11T06:58:25.414Z,10.37
2018-07-11T07:00:52.795Z,11.53
2018-07-11T07:03:20.236Z,10.30
2018-07-11T07:05:47.631Z,10.40
2018-07-11T07:08:15.147Z,9.37
2018-07-11T07:10:42.585Z,8.40
2018-07-11T07:13:10.066Z,7.30
2018-07-11T07:15:37.722Z,9.20
2018-07-11T07:18:05.118Z,7.30
2018-07-11T07:20:32.692Z,7.73
2018-07-11T07:23:00.050Z,7.33
2018-07-11T07:25:27.879Z,7.63
2018-07-11T07:27:55.543Z,7.60
2018-07-11T07:30:22.863Z,6.87
2018-07-11T07:32:50.265Z,6.60
2018-07-11T07:35:17.579Z,6.90
2018-07-11T07:37:44.919Z,7.67
2018-07-11T07:40:12.393Z,6.80
2018-07-11T07:42:39.772Z,7.10
2018-07-11T07:45:07.310Z,7.37
2018-07-11T07:47:47.002Z,6.33
2018-07-11T07:50:15.631Z,6.17
2018-07-11T07:52:43.024Z,6.90
2018-07-11T07:55:10.710Z,5.23
2018-07-11T07:57:38.036Z,6.73
2018-07-11T08:00:05.481Z,7.27
2018-07-11T08:02:32.756Z,5.67
2018-07-11T08:05:01.423Z,5.80
2018-07-11T08:07:28.928Z,6.30
2018-07-11T08:09:56.336Z,5.60
2018-07-11T08:12:23.670Z,6.17
2018-07-11T08:14:51.102Z,5.07
2018-07-11T08:17:18.523Z,6.10
2018-07-11T08:19:45.907Z,5.30
2018-07-11T08:22:19.057Z,5.20
2018-07-11T08:24:51.906Z,4.70
2018-07-11T08:27:24.809Z,4.00
2018-07-11T08:29:56.039Z,4.03
2018-07-11T08:32:38.886Z,3.10
2018-07-11T08:35:12.745Z,3.27
2018-07-11T08:37:50.158Z,4.03
2018-07-11T08:40:42.133Z,3.40
2018-07-11T08:43:15.365Z,3.83
2018-07-11T08:45:46.636Z,4.33
2018-07-11T08:48:19.653Z,3.40
2018-07-11T08:50:52.684Z,3.37
2018-07-11T08:53:25.931Z,3.27
2018-07-11T08:55:59.079Z,3.10
2018-07-11T08:58:32.164Z,4.00
2018-07-11T09:03:13.055Z,3.60
2018-07-11T09:05:48.454Z,3.13
2018-07-11T09:08:28.241Z,2.80
2018-07-11T09:11:01.137Z,2.70
2018-07-11T09:13:34.141Z,2.30
2018-07-11T09:17:06.843Z,2.80
2018-07-11T09:21:42.973Z,2.83
2018-07-11T09:24:42.960Z,2.60
2018-07-11T09:27:10.829Z,2.50
2018-07-11T09:29:39.017Z,2.13
2018-07-11T09:32:06.371Z,2.10
2018-07-11T09:34:33.783Z,2.63
2018-07-11T09:37:01.124Z,2.57
2018-07-11T09:39:28.571Z,2.50
2018-07-11T09:41:56.011Z,2.30
2018-07-11T09:44:23.448Z,2.53
2018-07-11T09:46:51.033Z,1.90
2018-07-11T09:49:18.446Z,1.90
2018-07-11T09:51:45.821Z,1.90
2018-07-11T09:54:13.265Z,2.37
2018-07-11T09:56:40.579Z,2.00
2018-07-11T09:59:08.008Z,2.87
2018-07-11T10:01:35.373Z,2.10
2018-07-11T10:04:03.336Z,1.90
2018-07-11T10:06:30.660Z,1.60
2018-07-11T10:08:58.870Z,1.70
2018-07-11T10:11:26.211Z,1.60
2018-07-11T10:13:53.594Z,1.40
2018-07-11T10:16:21.076Z,1.77
2018-07-11T10:18:59.922Z,1.40
2018-07-11T10:21:28.014Z,2.60
2018-07-11T10:23:55.551Z,1.53
2018-07-11T10:26:23.638Z,1.40
2018-07-11T10:28:51.207Z,1.70
2018-07-11T10:31:18.526Z,1.67
2018-07-11T10:33:46.008Z,1.67
2018-07-11T10:36:13.585Z,1.87
2018-07-11T10:38:41.047Z,1.43
2018-07-11T10:41:08.375Z,1.53
2018-07-11T10:43:35.722Z,1.30
2018-07-11T10:46:03.192Z,1.73
2018-07-11T10:48:30.560Z,1.77
2018-07-11T10:50:58.423Z,1.40
2018-07-11T10:53:25.823Z,2.00
2018-07-11T10:55:53.419Z,2.17
2018-07-11T10:58:20.851Z,1.87
2018-07-11T11:01:05.022Z,2.33
2018-07-11T11:03:16.591Z,1.70
2018-07-11T11:05:43.966Z,1.70
2018-07-11T11:08:11.304Z,1.97
2018-07-11T11:10:38.656Z,2.07
2018-07-11T11:13:05.995Z,2.20
2018-07-11T11:15:33.331Z,2.27
2018-07-11T11:18:00.855Z,2.17
2018-07-11T11:20:28.258Z,1.83
2018-07-11T11:22:55.582Z,2.13
2018-07-11T11:25:22.918Z,2.30
2018-07-11T11:27:50.268Z,2.83
2018-07-11T11:30:17.598Z,2.20
2018-07-11T11:32:44.940Z,2.13
2018-07-11T11:35:12.375Z,3.23
2018-07-11T11:37:39.861Z,2.47
2018-07-11T11:40:07.214Z,2.30
2018-07-11T11:42:34.743Z,2.07
2018-07-11T11:45:02.161Z,2.30
2018-07-11T11:47:29.588Z,2.40
2018-07-11T11:49:57.575Z,2.00
2018-07-11T11:52:25.523Z,2.40
2018-07-11T11:54:53.607Z,2.63
2018-07-11T11:57:21.287Z,2.23
2018-07-11T11:59:48.641Z,1.73
2018-07-11T12:02:16.219Z,2.17
2018-07-11T12:04:43.531Z,2.30
2018-07-11T12:07:10.956Z,1.90
2018-07-11T12:09:38.367Z,2.57
2018-07-11T12:12:05.823Z,2.50
2018-07-11T12:14:33.268Z,2.50
2018-07-11T12:17:00.658Z,2.40
2018-07-11T12:19:27.998Z,1.90
2018-07-11T12:21:55.628Z,2.13
2018-07-11T12:24:23.218Z,2.80
2018-07-11T12:26:50.655Z,2.47
2018-07-11T12:29:18.115Z,2.10
2018-07-11T12:31:45.483Z,2.57
2018-07-11T12:34:13.123Z,2.70
2018-07-11T12:36:41.020Z,3.10
2018-07-11T12:39:08.430Z,3.30
2018-07-11T12:41:35.803Z,2.90
2018-07-11T12:44:03.148Z,2.80
2018-07-11T12:46:30.527Z,2.40
2018-07-11T12:49:01.309Z,3.10
2018-07-11T12:51:29.090Z,3.20
2018-07-11T12:53:56.439Z,2.67
2018-07-11T12:56:24.132Z,3.73
2018-07-11T12:58:51.455Z,3.57
2018-07-11T13:01:18.940Z,4.07
2018-07-11T13:03:46.260Z,2.80
2018-07-11T13:06:13.652Z,3.47
2018-07-11T13:08:41.111Z,2.80
2018-07-11T13:11:08.423Z,2.60
2018-07-11T13:13:35.827Z,2.50
2018-07-11T13:16:03.247Z,2.53
2018-07-11T13:18:30.547Z,2.73
2018-07-11T13:20:57.923Z,2.80
2018-07-11T13:23:25.263Z,3.03
2018-07-11T13:25:52.570Z,2.63
2018-07-11T13:28:19.975Z,3.10
2018-07-11T13:30:47.327Z,3.17
2018-07-11T13:33:15.785Z,3.33
2018-07-11T13:35:43.122Z,3.60
2018-07-11T13:38:10.499Z,3.27
2018-07-11T13:40:37.901Z,3.80
2018-07-11T13:43:05.255Z,3.83
2018-07-11T13:45:32.635Z,2.80
2018-07-11T13:48:01.008Z,2.97
2018-07-11T13:50:28.415Z,4.20
2018-07-11T13:52:56.220Z,3.83
2018-07-11T13:55:23.680Z,4.50
2018-07-11T13:57:51.043Z,3.40
2018-07-11T14:00:18.791Z,3.87
2018-07-11T14:02:46.240Z,3.70
2018-07-11T14:05:13.743Z,3.20
2018-07-11T14:07:41.113Z,3.00
2018-07-11T14:10:08.434Z,3.40
2018-07-11T14:12:35.768Z,4.80
2018-07-11T14:15:03.073Z,4.43
2018-07-11T14:17:30.408Z,5.40
2018-07-11T14:19:58.137Z,5.57
2018-07-11T14:22:25.594Z,7.37
2018-07-11T14:24:53.075Z,6.70
2018-07-11T14:27:21.079Z,7.10
2018-07-11T14:29:48.420Z,7.97
2018-07-11T14:32:15.752Z,6.87
2018-07-11T14:34:43.078Z,7.80
2018-07-11T14:37:10.432Z,6.23
2018-07-11T14:39:37.763Z,7.17
2018-07-11T14:42:05.227Z,6.73
2018-07-11T14:44:32.612Z,6.67
2018-07-11T14:46:59.970Z,6.97
2018-07-11T14:49:27.383Z,6.10
2018-07-11T14:51:54.771Z,6.60
2018-07-11T14:54:22.127Z,5.50
2018-07-11T14:56:49.583Z,6.37
2018-07-11T14:59:17.141Z,6.00
2018-07-11T15:01:44.487Z,6.13
2018-07-11T15:04:12.014Z,5.70
2018-07-11T15:06:39.359Z,6.33
2018-07-11T15:09:06.948Z,5.70
2018-07-11T15:11:34.839Z,6.43
2018-07-11T15:14:02.230Z,6.47
2018-07-11T15:16:29.659Z,5.90
2018-07-11T15:18:57.234Z,5.03
2018-07-11T15:21:24.631Z,5.70
2018-07-11T15:23:51.962Z,5.90
2018-07-11T15:26:19.378Z,4.53
2018-07-11T15:28:46.756Z,6.27
2018-07-11T15:31:14.523Z,4.70
2018-07-11T15:33:41.908Z,6.43
2018-07-11T15:36:09.311Z,6.87
2018-07-11T15:38:36.806Z,8.03
2018-07-11T15:41:04.245Z,8.53
2018-07-11T15:43:31.681Z,9.50
2018-07-11T15:45:59.683Z,10.80
2018-07-11T15:48:27.027Z,11.97
2018-07-11T15:50:55.259Z,11.43
2018-07-11T15:53:22.998Z,10.87
2018-07-11T15:55:50.787Z,10.10
2018-07-11T15:58:19.020Z,8.40
2018-07-11T16:00:46.412Z,9.87
2018-07-11T16:03:14.503Z,9.00
2018-07-11T16:05:46.118Z,8.37
2018-07-11T16:08:16.599Z,8.60
2018-07-11T16:10:47.551Z,7.07
2018-07-11T16:13:14.893Z,8.17
2018-07-11T16:15:42.979Z,6.93
2018-07-11T16:18:10.491Z,8.17
2018-07-11T16:20:38.460Z,9.20
2018-07-11T16:23:06.555Z,11.80
2018-07-11T16:25:33.898Z,13.87
2018-07-11T16:28:01.791Z,15.47
2018-07-11T16:30:29.348Z,14.13
2018-07-11T16:32:57.251Z,13.03
2018-07-11T16:35:24.605Z,12.17
2018-07-11T16:37:52.004Z,10.70
2018-07-11T16:40:19.323Z,11.20
2018-07-11T16:42:46.686Z,11.40
2018-07-11T16:45:14.103Z,11.27
2018-07-11T16:47:41.696Z,11.60
2018-07-11T16:50:09.208Z,14.20
2018-07-11T16:52:36.844Z,10.87
2018-07-11T16:55:04.325Z,9.43
2018-07-11T16:57:41.184Z,10.47
2018-07-11T17:00:09.368Z,11.73
2018-07-11T17:02:37.499Z,11.73
2018-07-11T17:05:06.836Z,10.63
2018-07-11T17:07:39.239Z,11.43
2018-07-11T17:10:06.627Z,10.77
2018-07-11T17:12:34.346Z,11.00
2018-07-11T17:15:01.666Z,10.00
2018-07-11T17:17:36.212Z,10.17
2018-07-11T17:20:04.152Z,13.07
2018-07-11T17:22:33.302Z,11.73
2018-07-11T17:25:01.977Z,11.80
2018-07-11T17:27:29.614Z,11.27
2018-07-11T17:30:00.443Z,11.80
2018-07-11T17:32:27.851Z,10.90
2018-07-11T17:34:55.315Z,11.47
2018-07-11T17:37:26.223Z,11.70
2018-07-11T17:39:54.897Z,11.97
2018-07-11T17:42:24.529Z,12.20
2018-07-11T17:44:53.741Z,11.80
2018-07-11T17:47:22.429Z,13.53
2018-07-11T17:49:55.602Z,13.10
2018-07-11T17:52:23.924Z,12.53
2018-07-11T17:55:11.168Z,13.80
2018-07-11T17:57:50.504Z,12.90
2018-07-11T18:00:23.340Z,13.70
2018-07-11T18:02:53.598Z,13.07
2018-07-11T18:05:28.323Z,11.20
2018-07-11T18:07:56.650Z,12.50
2018-07-11T18:10:31.621Z,12.97
2018-07-11T18:13:07.107Z,12.20
2018-07-11T18:15:37.270Z,12.70
2018-07-11T18:18:10.380Z,13.00
2018-07-11T18:20:39.936Z,13.40
2018-07-11T18:23:12.994Z,14.80
2018-07-11T18:25:44.853Z,14.00
2018-07-11T18:29:25.471Z,13.80
2018-07-11T18:31:58.019Z,16.03
2018-07-11T18:34:32.684Z,14.10
2018-07-11T18:37:03.574Z,14.63
2018-07-11T18:39:36.560Z,13.70
2018-07-11T18:42:07.894Z,14.20
2018-07-11T18:44:54.905Z,14.43
2018-07-11T18:47:26.384Z,13.67
2018-07-11T18:50:27.443Z,15.17
2018-07-11T18:53:00.297Z,15.10
2018-07-11T18:56:31.333Z,15.13
2018-07-11T18:59:04.472Z,14.50
2018-07-11T19:01:34.986Z,16.97
2018-07-11T19:04:12.301Z,14.73
2018-07-11T19:06:45.392Z,16.10
2018-07-11T19:09:19.693Z,17.20
2018-07-11T19:11:53.354Z,15.20
2018-07-11T19:14:23.612Z,14.83
2018-07-11T19:16:56.565Z,15.60
2018-07-11T19:19:26.980Z,17.00
2018-07-11T19:21:56.117Z,17.33
2018-07-11T19:24:33.878Z,15.23
2018-07-11T19:27:13.600Z,16.40
2018-07-11T19:29:51.806Z,16.13
2018-07-11T19:32:26.198Z,17.97
2018-07-11T19:35:06.565Z,15.40
2018-07-11T19:38:42.544Z,16.07
2018-07-11T19:41:19.508Z,18.10
2018-07-11T19:43:54.462Z,17.47
2018-07-11T19:46:29.360Z,19.50
2018-07-11T19:51:09.498Z,17.57
2018-07-11T19:53:42.675Z,17.50
2018-07-11T19:56:16.508Z,18.90
2018-07-11T19:58:43.849Z,17.63
2018-07-11T20:01:11.851Z,18.00
2018-07-11T20:03:39.250Z,19.23
2018-07-11T20:06:06.694Z,15.80
2018-07-11T20:08:34.196Z,17.43
2018-07-11T20:11:01.731Z,18.07
2018-07-11T20:13:29.296Z,18.50
2018-07-11T20:15:56.711Z,18.70
2018-07-11T20:18:24.127Z,18.40
2018-07-11T20:20:51.535Z,18.17
2018-07-11T20:23:18.889Z,18.47
2018-07-11T20:25:46.264Z,17.63
2018-07-11T20:28:13.818Z,18.03
2018-07-11T20:30:41.235Z,19.27
2018-07-11T20:33:08.608Z,19.20
2018-07-11T20:35:35.940Z,17.70
2018-07-11T20:38:03.324Z,18.07
2018-07-11T20:40:30.681Z,16.97
2018-07-11T20:42:58.039Z,17.97
2018-07-11T20:45:25.480Z,17.93
2018-07-11T20:47:52.895Z,18.20
2018-07-11T20:50:20.251Z,17.47
2018-07-11T20:52:47.658Z,16.83
2018-07-11T20:55:14.996Z,17.67
2018-07-11T20:57:42.476Z,18.87
2018-07-11T21:00:15.474Z,18.47
2018-07-11T21:03:04.298Z,18.20
2018-07-11T21:05:37.296Z,18.73
2018-07-11T21:08:09.122Z,18.73
2018-07-11T21:10:42.156Z,20.60
2018-07-11T21:13:21.329Z,21.57
2018-07-11T21:15:54.132Z,19.97
2018-07-11T21:18:27.142Z,20.27
2018-07-11T21:20:54.660Z,18.37
2018-07-11T21:23:22.013Z,20.53
2018-07-11T21:25:49.473Z,19.57
2018-07-11T21:28:16.862Z,19.00
2018-07-11T21:30:44.238Z,17.70
2018-07-11T21:33:11.695Z,18.00
2018-07-11T21:35:39.047Z,17.83
2018-07-11T21:38:06.362Z,17.70
2018-07-11T21:40:33.727Z,15.10
2018-07-11T21:43:01.135Z,16.80
2018-07-11T21:45:28.568Z,15.80
2018-07-11T21:47:55.893Z,16.97
2018-07-11T21:50:23.568Z,15.20
2018-07-11T21:52:50.963Z,16.70
2018-07-11T21:55:18.305Z,16.57
2018-07-11T21:57:45.665Z,18.43
2018-07-11T22:00:17.548Z,17.53
2018-07-11T22:02:44.935Z,16.37
2018-07-11T22:05:12.316Z,18.73
2018-07-11T22:07:39.830Z,18.40
2018-07-11T22:10:07.353Z,17.83
2018-07-11T22:12:34.741Z,17.20
2018-07-11T22:15:02.138Z,18.33
2018-07-11T22:18:39.143Z,17.87
2018-07-11T22:21:06.985Z,19.50
2018-07-11T22:23:33.832Z,19.53
2018-07-11T22:26:00.843Z,19.40
2018-07-11T22:28:27.696Z,19.83
2018-07-11T22:30:54.483Z,19.93
2018-07-11T22:33:21.340Z,19.77
2018-07-11T22:35:48.300Z,18.90
2018-07-11T22:38:15.289Z,19.90
2018-07-11T22:40:42.681Z,19.67
2018-07-11T22:43:09.432Z,19.90
2018-07-11T22:45:36.256Z,18.87
2018-07-11T22:48:03.251Z,19.93
2018-07-11T22:50:30.380Z,19.10
2018-07-11T22:52:57.135Z,19.37
2018-07-11T22:55:24.041Z,18.73
2018-07-11T22:57:51.037Z,19.07
2018-07-11T23:00:18.093Z,19.90
2018-07-11T23:02:45.126Z,18.20
2018-07-11T23:05:12.152Z,19.00
2018-07-11T23:07:38.913Z,19.73
2018-07-11T23:10:05.660Z,19.10
2018-07-11T23:12:32.571Z,20.00
2018-07-11T23:14:59.384Z,20.83
2018-07-11T23:17:26.219Z,21.43
2018-07-11T23:19:53.018Z,20.93
2018-07-11T23:22:19.756Z,21.60
2018-07-11T23:24:46.526Z,21.40
2018-07-11T23:27:13.293Z,22.17
2018-07-11T23:29:40.044Z,23.40
2018-07-11T23:32:06.820Z,23.07
2018-07-11T23:40:13.643Z,22.53
2018-07-11T23:42:40.376Z,23.77
2018-07-11T23:45:07.139Z,23.77
2018-07-11T23:47:33.874Z,23.80
2018-07-11T23:50:00.666Z,22.93
2018-07-11T23:52:27.523Z,23.00
2018-07-11T23:54:54.284Z,22.10
2018-07-11T23:57:21.075Z,23.43
2018-07-11T23:59:47.905Z,23.53
